sensor_id;sensor_type;location;lat;lon;timestamp;P1;durP1;ratioP1;P2;durP2;ratioP2
84264;SDS011;74412;45.626;5.108;2024-01-07T00:02:11;3.75;;;3.75;;
84264;SDS011;74412;45.626;5.108;2024-01-07T00:04:37;4.50;;;4.00;;
84264;SDS011;74412;45.626;5.108;2024-01-07T00:07:05;4.00;;;4.00;;
84264;SDS011;74412;45.626;5.108;2024-01-07T00:09:32;3.75;;;3.75;;
84264;SDS011;74412;45.626;5.108;2024-01-07T00:12:02;6.75;;;4.00;;
84264;SDS011;74412;45.626;5.108;2024-01-07T00:14:29;4.00;;;4.00;;
84264;SDS011;74412;45.626;5.108;2024-01-07T00:16:55;5.00;;;4.00;;
84264;SDS011;74412;45.626;5.108;2024-01-07T00:19:23;4.00;;;3.00;;
84264;SDS011;74412;45.626;5.108;2024-01-07T00:21:50;6.50;;;5.75;;
84264;SDS011;74412;45.626;5.108;2024-01-07T00:24:16;8.00;;;4.00;;
84264;SDS011;74412;45.626;5.108;2024-01-07T00:26:43;3.75;;;3.75;;
84264;SDS011;74412;45.626;5.108;2024-01-07T00:29:10;4.00;;;4.00;;
84264;SDS011;74412;45.626;5.108;2024-01-07T00:31:36;4.00;;;4.00;;
84264;SDS011;74412;45.626;5.108;2024-01-07T00:34:03;3.25;;;3.25;;
84264;SDS011;74412;45.626;5.108;2024-01-07T00:36:31;7.50;;;3.00;;
84264;SDS011;74412;45.626;5.108;2024-01-07T00:38:57;3.00;;;3.00;;
84264;SDS011;74412;45.626;5.108;2024-01-07T00:41:24;4.50;;;3.75;;
84264;SDS011;74412;45.626;5.108;2024-01-07T00:43:51;5.25;;;2.75;;
84264;SDS011;74412;45.626;5.108;2024-01-07T00:46:17;3.00;;;2.50;;
84264;SDS011;74412;45.626;5.108;2024-01-07T00:48:44;4.00;;;4.00;;
84264;SDS011;74412;45.626;5.108;2024-01-07T00:51:10;4.00;;;3.00;;
84264;SDS011;74412;45.626;5.108;2024-01-07T00:53:38;5.75;;;4.00;;
84264;SDS011;74412;45.626;5.108;2024-01-07T00:56:06;5.75;;;3.75;;
84264;SDS011;74412;45.626;5.108;2024-01-07T00:58:32;3.00;;;3.00;;
84264;SDS011;74412;45.626;5.108;2024-01-07T01:00:59;3.25;;;3.25;;
84264;SDS011;74412;45.626;5.108;2024-01-07T01:03:26;3.50;;;3.50;;
84264;SDS011;74412;45.626;5.108;2024-01-07T01:05:52;3.00;;;3.00;;
84264;SDS011;74412;45.626;5.108;2024-01-07T01:08:19;3.25;;;3.25;;
84264;SDS011;74412;45.626;5.108;2024-01-07T01:10:47;3.00;;;3.00;;
84264;SDS011;74412;45.626;5.108;2024-01-07T01:13:14;2.50;;;2.50;;
84264;SDS011;74412;45.626;5.108;2024-01-07T01:15:40;3.50;;;3.25;;
84264;SDS011;74412;45.626;5.108;2024-01-07T01:18:07;3.00;;;3.00;;
84264;SDS011;74412;45.626;5.108;2024-01-07T01:20:33;3.75;;;3.75;;
84264;SDS011;74412;45.626;5.108;2024-01-07T01:23:00;3.25;;;3.00;;
84264;SDS011;74412;45.626;5.108;2024-01-07T01:25:27;2.75;;;2.00;;
84264;SDS011;74412;45.626;5.108;2024-01-07T01:27:56;2.00;;;1.00;;
84264;SDS011;74412;45.626;5.108;2024-01-07T01:30:23;3.75;;;2.00;;
84264;SDS011;74412;45.626;5.108;2024-01-07T01:32:50;2.25;;;2.25;;
84264;SDS011;74412;45.626;5.108;2024-01-07T01:35:16;2.00;;;2.00;;
84264;SDS011;74412;45.626;5.108;2024-01-07T01:37:43;2.25;;;1.50;;
84264;SDS011;74412;45.626;5.108;2024-01-07T01:40:10;1.75;;;1.75;;
84264;SDS011;74412;45.626;5.108;2024-01-07T01:42:37;3.25;;;3.25;;
84264;SDS011;74412;45.626;5.108;2024-01-07T01:45:06;3.00;;;3.00;;
84264;SDS011;74412;45.626;5.108;2024-01-07T01:47:33;2.00;;;2.00;;
84264;SDS011;74412;45.626;5.108;2024-01-07T01:49:59;2.50;;;2.00;;
84264;SDS011;74412;45.626;5.108;2024-01-07T01:52:26;3.25;;;3.00;;
84264;SDS011;74412;45.626;5.108;2024-01-07T01:54:53;1.25;;;1.00;;
84264;SDS011;74412;45.626;5.108;2024-01-07T01:57:21;3.00;;;2.00;;
84264;SDS011;74412;45.626;5.108;2024-01-07T01:59:50;2.00;;;2.00;;
84264;SDS011;74412;45.626;5.108;2024-01-07T02:02:19;4.00;;;3.00;;
84264;SDS011;74412;45.626;5.108;2024-01-07T02:04:46;2.00;;;2.00;;
84264;SDS011;74412;45.626;5.108;2024-01-07T02:07:13;2.00;;;2.00;;
84264;SDS011;74412;45.626;5.108;2024-01-07T02:09:40;2.75;;;2.00;;
84264;SDS011;74412;45.626;5.108;2024-01-07T02:12:06;6.75;;;4.00;;
84264;SDS011;74412;45.626;5.108;2024-01-07T02:14:36;3.50;;;3.50;;
84264;SDS011;74412;45.626;5.108;2024-01-07T02:17:03;3.00;;;3.00;;
84264;SDS011;74412;45.626;5.108;2024-01-07T02:19:31;3.25;;;2.00;;
84264;SDS011;74412;45.626;5.108;2024-01-07T02:21:58;5.00;;;3.00;;
84264;SDS011;74412;45.626;5.108;2024-01-07T02:24:26;5.00;;;4.00;;
84264;SDS011;74412;45.626;5.108;2024-01-07T02:26:53;4.00;;;4.00;;
84264;SDS011;74412;45.626;5.108;2024-01-07T02:29:19;2.75;;;2.75;;
84264;SDS011;74412;45.626;5.108;2024-01-07T02:31:46;2.00;;;2.00;;
84264;SDS011;74412;45.626;5.108;2024-01-07T02:34:13;2.25;;;2.00;;
84264;SDS011;74412;45.626;5.108;2024-01-07T02:36:39;3.75;;;2.75;;
84264;SDS011;74412;45.626;5.108;2024-01-07T02:39:06;5.00;;;2.00;;
84264;SDS011;74412;45.626;5.108;2024-01-07T02:41:34;1.50;;;0.00;;
84264;SDS011;74412;45.626;5.108;2024-01-07T02:44:00;4.00;;;4.00;;
84264;SDS011;74412;45.626;5.108;2024-01-07T02:46:27;2.75;;;2.25;;
84264;SDS011;74412;45.626;5.108;2024-01-07T02:48:54;3.00;;;3.00;;
84264;SDS011;74412;45.626;5.108;2024-01-07T02:51:20;6.00;;;5.75;;
84264;SDS011;74412;45.626;5.108;2024-01-07T02:53:47;6.50;;;4.00;;
84264;SDS011;74412;45.626;5.108;2024-01-07T02:56:14;7.00;;;5.75;;
84264;SDS011;74412;45.626;5.108;2024-01-07T02:58:42;8.25;;;6.00;;
84264;SDS011;74412;45.626;5.108;2024-01-07T03:01:08;8.00;;;6.00;;
84264;SDS011;74412;45.626;5.108;2024-01-07T03:03:35;10.00;;;7.75;;
84264;SDS011;74412;45.626;5.108;2024-01-07T03:06:02;8.50;;;8.00;;
84264;SDS011;74412;45.626;5.108;2024-01-07T03:08:29;9.75;;;7.75;;
84264;SDS011;74412;45.626;5.108;2024-01-07T03:10:56;7.25;;;6.00;;
84264;SDS011;74412;45.626;5.108;2024-01-07T03:13:22;7.25;;;7.25;;
84264;SDS011;74412;45.626;5.108;2024-01-07T03:15:50;7.25;;;7.00;;
84264;SDS011;74412;45.626;5.108;2024-01-07T03:18:17;10.25;;;6.75;;
84264;SDS011;74412;45.626;5.108;2024-01-07T03:20:44;9.00;;;7.75;;
84264;SDS011;74412;45.626;5.108;2024-01-07T03:23:11;11.00;;;8.75;;
84264;SDS011;74412;45.626;5.108;2024-01-07T03:25:37;10.25;;;9.50;;
84264;SDS011;74412;45.626;5.108;2024-01-07T03:28:04;7.25;;;6.25;;
84264;SDS011;74412;45.626;5.108;2024-01-07T03:30:31;10.50;;;8.75;;
84264;SDS011;74412;45.626;5.108;2024-01-07T03:32:59;7.75;;;6.25;;
84264;SDS011;74412;45.626;5.108;2024-01-07T03:35:25;11.00;;;8.00;;
84264;SDS011;74412;45.626;5.108;2024-01-07T03:37:53;7.25;;;6.00;;
84264;SDS011;74412;45.626;5.108;2024-01-07T03:40:20;7.50;;;7.25;;
84264;SDS011;74412;45.626;5.108;2024-01-07T03:42:47;10.25;;;10.00;;
84264;SDS011;74412;45.626;5.108;2024-01-07T03:45:13;7.75;;;4.75;;
84264;SDS011;74412;45.626;5.108;2024-01-07T03:47:40;7.00;;;6.75;;
84264;SDS011;74412;45.626;5.108;2024-01-07T03:50:09;12.00;;;9.00;;
84264;SDS011;74412;45.626;5.108;2024-01-07T03:52:35;12.25;;;10.00;;
84264;SDS011;74412;45.626;5.108;2024-01-07T03:55:02;8.25;;;7.25;;
84264;SDS011;74412;45.626;5.108;2024-01-07T03:57:29;5.25;;;3.25;;
84264;SDS011;74412;45.626;5.108;2024-01-07T03:59:56;9.25;;;8.00;;
84264;SDS011;74412;45.626;5.108;2024-01-07T04:02:22;11.00;;;10.00;;
84264;SDS011;74412;45.626;5.108;2024-01-07T04:04:49;10.50;;;9.00;;
84264;SDS011;74412;45.626;5.108;2024-01-07T04:07:17;12.25;;;7.00;;
84264;SDS011;74412;45.626;5.108;2024-01-07T04:09:43;10.75;;;9.00;;
84264;SDS011;74412;45.626;5.108;2024-01-07T04:12:10;8.25;;;4.50;;
84264;SDS011;74412;45.626;5.108;2024-01-07T04:14:37;7.50;;;7.00;;
84264;SDS011;74412;45.626;5.108;2024-01-07T04:17:03;8.00;;;7.25;;
84264;SDS011;74412;45.626;5.108;2024-01-07T04:19:30;8.00;;;7.00;;
84264;SDS011;74412;45.626;5.108;2024-01-07T04:21:57;16.50;;;10.50;;
84264;SDS011;74412;45.626;5.108;2024-01-07T04:24:24;10.00;;;8.00;;
84264;SDS011;74412;45.626;5.108;2024-01-07T04:26:51;9.75;;;7.50;;
84264;SDS011;74412;45.626;5.108;2024-01-07T04:29:18;7.50;;;6.00;;
84264;SDS011;74412;45.626;5.108;2024-01-07T04:31:45;8.50;;;8.00;;
84264;SDS011;74412;45.626;5.108;2024-01-07T04:34:11;11.00;;;6.00;;
84264;SDS011;74412;45.626;5.108;2024-01-07T04:36:38;7.75;;;5.00;;
84264;SDS011;74412;45.626;5.108;2024-01-07T04:39:05;5.75;;;4.75;;
84264;SDS011;74412;45.626;5.108;2024-01-07T04:41:33;4.50;;;4.50;;
84264;SDS011;74412;45.626;5.108;2024-01-07T04:43:59;9.25;;;7.75;;
84264;SDS011;74412;45.626;5.108;2024-01-07T04:46:26;9.50;;;7.75;;
84264;SDS011;74412;45.626;5.108;2024-01-07T04:48:52;4.50;;;3.75;;
84264;SDS011;74412;45.626;5.108;2024-01-07T04:51:18;10.50;;;9.00;;
84264;SDS011;74412;45.626;5.108;2024-01-07T04:53:45;7.00;;;6.50;;
84264;SDS011;74412;45.626;5.108;2024-01-07T04:56:11;7.00;;;5.25;;
84264;SDS011;74412;45.626;5.108;2024-01-07T04:58:41;9.00;;;7.50;;
84264;SDS011;74412;45.626;5.108;2024-01-07T05:01:07;8.00;;;5.75;;
84264;SDS011;74412;45.626;5.108;2024-01-07T05:03:34;4.50;;;4.00;;
84264;SDS011;74412;45.626;5.108;2024-01-07T05:06:00;9.00;;;5.00;;
84264;SDS011;74412;45.626;5.108;2024-01-07T05:08:28;6.50;;;4.75;;
84264;SDS011;74412;45.626;5.108;2024-01-07T05:10:54;6.00;;;5.50;;
84264;SDS011;74412;45.626;5.108;2024-01-07T05:13:21;4.75;;;3.00;;
84264;SDS011;74412;45.626;5.108;2024-01-07T05:15:49;10.75;;;9.25;;
84264;SDS011;74412;45.626;5.108;2024-01-07T05:18:18;2.50;;;2.50;;
84264;SDS011;74412;45.626;5.108;2024-01-07T05:20:46;9.00;;;7.25;;
84264;SDS011;74412;45.626;5.108;2024-01-07T05:23:12;4.00;;;4.00;;
84264;SDS011;74412;45.626;5.108;2024-01-07T05:25:39;5.75;;;5.25;;
84264;SDS011;74412;45.626;5.108;2024-01-07T05:28:05;8.00;;;5.00;;
84264;SDS011;74412;45.626;5.108;2024-01-07T05:30:32;4.50;;;4.50;;
84264;SDS011;74412;45.626;5.108;2024-01-07T05:33:00;4.50;;;3.00;;
84264;SDS011;74412;45.626;5.108;2024-01-07T05:35:27;3.75;;;3.75;;
84264;SDS011;74412;45.626;5.108;2024-01-07T05:37:53;4.00;;;4.00;;
84264;SDS011;74412;45.626;5.108;2024-01-07T05:40:20;3.75;;;3.75;;
84264;SDS011;74412;45.626;5.108;2024-01-07T05:42:47;3.25;;;3.25;;
84264;SDS011;74412;45.626;5.108;2024-01-07T05:45:14;6.25;;;3.75;;
84264;SDS011;74412;45.626;5.108;2024-01-07T05:47:40;2.50;;;2.50;;
84264;SDS011;74412;45.626;5.108;2024-01-07T05:50:09;2.25;;;2.25;;
84264;SDS011;74412;45.626;5.108;2024-01-07T05:52:35;4.75;;;4.75;;
84264;SDS011;74412;45.626;5.108;2024-01-07T05:55:02;7.00;;;6.00;;
84264;SDS011;74412;45.626;5.108;2024-01-07T05:57:29;5.25;;;5.25;;
84264;SDS011;74412;45.626;5.108;2024-01-07T05:59:56;5.25;;;5.25;;
84264;SDS011;74412;45.626;5.108;2024-01-07T06:02:22;6.75;;;4.50;;
84264;SDS011;74412;45.626;5.108;2024-01-07T06:04:49;4.50;;;4.00;;
84264;SDS011;74412;45.626;5.108;2024-01-07T06:07:17;4.00;;;2.00;;
84264;SDS011;74412;45.626;5.108;2024-01-07T06:09:44;7.00;;;2.50;;
84264;SDS011;74412;45.626;5.108;2024-01-07T06:12:10;8.00;;;4.00;;
84264;SDS011;74412;45.626;5.108;2024-01-07T06:14:37;1.50;;;1.00;;
84264;SDS011;74412;45.626;5.108;2024-01-07T06:17:04;4.50;;;4.00;;
84264;SDS011;74412;45.626;5.108;2024-01-07T06:19:31;4.00;;;4.00;;
84264;SDS011;74412;45.626;5.108;2024-01-07T06:21:57;5.25;;;4.25;;
84264;SDS011;74412;45.626;5.108;2024-01-07T06:24:25;7.00;;;3.50;;
84264;SDS011;74412;45.626;5.108;2024-01-07T06:26:52;4.75;;;4.25;;
84264;SDS011;74412;45.626;5.108;2024-01-07T06:29:18;2.00;;;1.50;;
84264;SDS011;74412;45.626;5.108;2024-01-07T06:31:45;2.50;;;2.50;;
84264;SDS011;74412;45.626;5.108;2024-01-07T06:34:12;5.75;;;5.75;;
84264;SDS011;74412;45.626;5.108;2024-01-07T06:36:40;3.00;;;2.75;;
84264;SDS011;74412;45.626;5.108;2024-01-07T06:39:07;4.00;;;4.00;;
84264;SDS011;74412;45.626;5.108;2024-01-07T06:41:35;2.25;;;2.25;;
84264;SDS011;74412;45.626;5.108;2024-01-07T06:44:02;3.75;;;3.75;;
84264;SDS011;74412;45.626;5.108;2024-01-07T06:46:29;3.75;;;3.50;;
84264;SDS011;74412;45.626;5.108;2024-01-07T06:48:55;6.00;;;3.75;;
84264;SDS011;74412;45.626;5.108;2024-01-07T06:51:22;7.00;;;4.00;;
84264;SDS011;74412;45.626;5.108;2024-01-07T06:53:49;2.00;;;2.00;;
84264;SDS011;74412;45.626;5.108;2024-01-07T06:56:15;2.25;;;2.25;;
84264;SDS011;74412;45.626;5.108;2024-01-07T06:58:43;10.25;;;7.00;;
84264;SDS011;74412;45.626;5.108;2024-01-07T07:01:10;4.00;;;1.25;;
84264;SDS011;74412;45.626;5.108;2024-01-07T07:03:39;5.25;;;4.25;;
84264;SDS011;74412;45.626;5.108;2024-01-07T07:06:06;2.25;;;1.00;;
84264;SDS011;74412;45.626;5.108;2024-01-07T07:08:33;2.00;;;2.00;;
84264;SDS011;74412;45.626;5.108;2024-01-07T07:11:00;9.00;;;5.75;;
84264;SDS011;74412;45.626;5.108;2024-01-07T07:13:27;8.00;;;6.75;;
84264;SDS011;74412;45.626;5.108;2024-01-07T07:15:55;10.25;;;6.50;;
84264;SDS011;74412;45.626;5.108;2024-01-07T07:18:21;7.50;;;5.25;;
84264;SDS011;74412;45.626;5.108;2024-01-07T07:20:49;7.25;;;7.25;;
84264;SDS011;74412;45.626;5.108;2024-01-07T07:23:16;7.00;;;7.00;;
84264;SDS011;74412;45.626;5.108;2024-01-07T07:25:43;7.75;;;4.00;;
84264;SDS011;74412;45.626;5.108;2024-01-07T07:28:09;9.75;;;6.25;;
84264;SDS011;74412;45.626;5.108;2024-01-07T07:30:36;8.00;;;7.00;;
84264;SDS011;74412;45.626;5.108;2024-01-07T07:33:04;4.50;;;4.50;;
84264;SDS011;74412;45.626;5.108;2024-01-07T07:35:31;10.50;;;3.00;;
84264;SDS011;74412;45.626;5.108;2024-01-07T07:37:57;9.00;;;7.25;;
84264;SDS011;74412;45.626;5.108;2024-01-07T07:40:24;4.25;;;2.00;;
84264;SDS011;74412;45.626;5.108;2024-01-07T07:42:50;8.00;;;8.00;;
84264;SDS011;74412;45.626;5.108;2024-01-07T07:45:17;6.25;;;3.50;;
84264;SDS011;74412;45.626;5.108;2024-01-07T07:47:44;9.00;;;7.75;;
84264;SDS011;74412;45.626;5.108;2024-01-07T07:50:12;8.25;;;6.00;;
84264;SDS011;74412;45.626;5.108;2024-01-07T07:52:39;6.50;;;4.00;;
84264;SDS011;74412;45.626;5.108;2024-01-07T07:55:08;6.50;;;6.25;;
84264;SDS011;74412;45.626;5.108;2024-01-07T07:57:35;12.00;;;7.00;;
84264;SDS011;74412;45.626;5.108;2024-01-07T08:00:03;7.00;;;7.00;;
84264;SDS011;74412;45.626;5.108;2024-01-07T08:02:30;9.50;;;7.00;;
84264;SDS011;74412;45.626;5.108;2024-01-07T08:04:57;12.25;;;6.00;;
84264;SDS011;74412;45.626;5.108;2024-01-07T08:07:25;6.25;;;3.50;;
84264;SDS011;74412;45.626;5.108;2024-01-07T08:09:51;2.50;;;2.00;;
84264;SDS011;74412;45.626;5.108;2024-01-07T08:12:18;7.25;;;7.25;;
84264;SDS011;74412;45.626;5.108;2024-01-07T08:14:44;8.75;;;7.00;;
84264;SDS011;74412;45.626;5.108;2024-01-07T08:17:11;6.75;;;4.75;;
84264;SDS011;74412;45.626;5.108;2024-01-07T08:19:38;8.00;;;6.25;;
84264;SDS011;74412;45.626;5.108;2024-01-07T08:22:04;7.50;;;4.50;;
84264;SDS011;74412;45.626;5.108;2024-01-07T08:24:32;3.75;;;3.75;;
84264;SDS011;74412;45.626;5.108;2024-01-07T08:26:59;11.50;;;6.00;;
84264;SDS011;74412;45.626;5.108;2024-01-07T08:29:25;6.75;;;4.25;;
84264;SDS011;74412;45.626;5.108;2024-01-07T08:31:52;6.75;;;6.75;;
84264;SDS011;74412;45.626;5.108;2024-01-07T08:34:19;5.75;;;4.25;;
84264;SDS011;74412;45.626;5.108;2024-01-07T08:36:45;5.50;;;4.25;;
84264;SDS011;74412;45.626;5.108;2024-01-07T08:39:14;4.75;;;4.75;;
84264;SDS011;74412;45.626;5.108;2024-01-07T08:41:42;7.75;;;6.25;;
84264;SDS011;74412;45.626;5.108;2024-01-07T08:44:09;7.25;;;4.50;;
84264;SDS011;74412;45.626;5.108;2024-01-07T08:46:35;7.25;;;5.50;;
84264;SDS011;74412;45.626;5.108;2024-01-07T08:49:02;4.75;;;4.00;;
84264;SDS011;74412;45.626;5.108;2024-01-07T08:51:29;7.25;;;7.25;;
84264;SDS011;74412;45.626;5.108;2024-01-07T08:53:56;6.00;;;5.50;;
84264;SDS011;74412;45.626;5.108;2024-01-07T08:56:24;5.00;;;5.00;;
84264;SDS011;74412;45.626;5.108;2024-01-07T08:58:52;3.25;;;3.25;;
84264;SDS011;74412;45.626;5.108;2024-01-07T09:01:19;5.25;;;3.00;;
84264;SDS011;74412;45.626;5.108;2024-01-07T09:03:45;3.50;;;3.00;;
84264;SDS011;74412;45.626;5.108;2024-01-07T09:06:12;7.50;;;6.50;;
84264;SDS011;74412;45.626;5.108;2024-01-07T09:08:39;6.00;;;6.00;;
84264;SDS011;74412;45.626;5.108;2024-01-07T09:11:05;6.00;;;4.00;;
84264;SDS011;74412;45.626;5.108;2024-01-07T09:13:36;7.00;;;4.00;;
84264;SDS011;74412;45.626;5.108;2024-01-07T09:16:04;6.75;;;4.00;;
84264;SDS011;74412;45.626;5.108;2024-01-07T09:18:33;6.25;;;6.25;;
84264;SDS011;74412;45.626;5.108;2024-01-07T09:20:59;8.00;;;7.00;;
84264;SDS011;74412;45.626;5.108;2024-01-07T09:23:26;7.00;;;4.75;;
84264;SDS011;74412;45.626;5.108;2024-01-07T09:25:53;5.75;;;5.75;;
84264;SDS011;74412;45.626;5.108;2024-01-07T09:28:19;3.75;;;2.25;;
84264;SDS011;74412;45.626;5.108;2024-01-07T09:30:46;7.50;;;6.50;;
84264;SDS011;74412;45.626;5.108;2024-01-07T09:33:14;5.75;;;4.00;;
84264;SDS011;74412;45.626;5.108;2024-01-07T09:35:41;6.75;;;5.50;;
84264;SDS011;74412;45.626;5.108;2024-01-07T09:38:08;7.75;;;5.25;;
84264;SDS011;74412;45.626;5.108;2024-01-07T09:40:35;3.00;;;2.75;;
84264;SDS011;74412;45.626;5.108;2024-01-07T09:43:04;4.00;;;4.00;;
84264;SDS011;74412;45.626;5.108;2024-01-07T09:45:31;6.00;;;5.25;;
84264;SDS011;74412;45.626;5.108;2024-01-07T09:47:57;4.00;;;2.75;;
84264;SDS011;74412;45.626;5.108;2024-01-07T09:50:26;5.25;;;5.25;;
84264;SDS011;74412;45.626;5.108;2024-01-07T09:52:52;4.50;;;4.50;;
84264;SDS011;74412;45.626;5.108;2024-01-07T09:55:26;4.00;;;4.00;;
84264;SDS011;74412;45.626;5.108;2024-01-07T09:57:54;6.50;;;6.50;;
84264;SDS011;74412;45.626;5.108;2024-01-07T10:00:20;5.50;;;5.50;;
84264;SDS011;74412;45.626;5.108;2024-01-07T10:02:47;6.25;;;4.00;;
84264;SDS011;74412;45.626;5.108;2024-01-07T10:05:14;6.00;;;6.00;;
84264;SDS011;74412;45.626;5.108;2024-01-07T10:07:43;3.25;;;3.25;;
84264;SDS011;74412;45.626;5.108;2024-01-07T10:10:11;4.00;;;2.50;;
84264;SDS011;74412;45.626;5.108;2024-01-07T10:12:39;7.50;;;6.00;;
84264;SDS011;74412;45.626;5.108;2024-01-07T10:15:06;5.75;;;5.75;;
84264;SDS011;74412;45.626;5.108;2024-01-07T10:17:33;6.00;;;6.00;;
84264;SDS011;74412;45.626;5.108;2024-01-07T10:20:00;9.50;;;8.00;;
84264;SDS011;74412;45.626;5.108;2024-01-07T10:22:27;5.00;;;4.50;;
84264;SDS011;74412;45.626;5.108;2024-01-07T10:24:56;7.75;;;7.50;;
84264;SDS011;74412;45.626;5.108;2024-01-07T10:27:23;4.50;;;4.00;;
84264;SDS011;74412;45.626;5.108;2024-01-07T10:29:50;4.00;;;4.00;;
84264;SDS011;74412;45.626;5.108;2024-01-07T10:32:20;4.50;;;4.50;;
84264;SDS011;74412;45.626;5.108;2024-01-07T10:34:47;5.25;;;5.25;;
84264;SDS011;74412;45.626;5.108;2024-01-07T10:37:15;5.75;;;5.75;;
84264;SDS011;74412;45.626;5.108;2024-01-07T10:39:41;6.00;;;6.00;;
84264;SDS011;74412;45.626;5.108;2024-01-07T10:42:09;10.75;;;7.00;;
84264;SDS011;74412;45.626;5.108;2024-01-07T10:44:41;7.25;;;7.25;;
84264;SDS011;74412;45.626;5.108;2024-01-07T10:47:08;4.00;;;4.00;;
84264;SDS011;74412;45.626;5.108;2024-01-07T10:49:41;8.50;;;6.25;;
84264;SDS011;74412;45.626;5.108;2024-01-07T10:52:13;7.75;;;7.75;;
84264;SDS011;74412;45.626;5.108;2024-01-07T10:54:41;9.00;;;7.75;;
84264;SDS011;74412;45.626;5.108;2024-01-07T10:57:12;7.00;;;6.75;;
84264;SDS011;74412;45.626;5.108;2024-01-07T10:59:45;13.75;;;10.75;;
84264;SDS011;74412;45.626;5.108;2024-01-07T11:02:13;11.75;;;7.00;;
84264;SDS011;74412;45.626;5.108;2024-01-07T11:04:43;11.25;;;8.75;;
84264;SDS011;74412;45.626;5.108;2024-01-07T11:07:17;9.00;;;8.25;;
84264;SDS011;74412;45.626;5.108;2024-01-07T11:09:52;8.00;;;8.00;;
84264;SDS011;74412;45.626;5.108;2024-01-07T11:12:27;9.00;;;8.00;;
84264;SDS011;74412;45.626;5.108;2024-01-07T11:14:54;6.25;;;5.25;;
84264;SDS011;74412;45.626;5.108;2024-01-07T11:20:07;10.25;;;7.25;;
84264;SDS011;74412;45.626;5.108;2024-01-07T11:22:40;8.00;;;8.00;;
84264;SDS011;74412;45.626;5.108;2024-01-07T11:25:27;9.50;;;8.00;;
84264;SDS011;74412;45.626;5.108;2024-01-07T11:27:56;7.00;;;4.00;;
84264;SDS011;74412;45.626;5.108;2024-01-07T11:30:24;8.00;;;7.50;;
84264;SDS011;74412;45.626;5.108;2024-01-07T11:32:56;13.00;;;9.50;;
84264;SDS011;74412;45.626;5.108;2024-01-07T11:38:21;8.75;;;8.00;;
84264;SDS011;74412;45.626;5.108;2024-01-07T11:40:48;12.75;;;11.50;;
84264;SDS011;74412;45.626;5.108;2024-01-07T11:43:17;10.00;;;10.00;;
84264;SDS011;74412;45.626;5.108;2024-01-07T11:45:44;13.25;;;10.00;;
84264;SDS011;74412;45.626;5.108;2024-01-07T11:48:11;13.75;;;11.00;;
84264;SDS011;74412;45.626;5.108;2024-01-07T11:50:37;9.00;;;7.00;;
84264;SDS011;74412;45.626;5.108;2024-01-07T11:53:04;15.50;;;9.25;;
84264;SDS011;74412;45.626;5.108;2024-01-07T11:55:31;7.50;;;5.75;;
84264;SDS011;74412;45.626;5.108;2024-01-07T11:58:00;9.75;;;9.00;;
84264;SDS011;74412;45.626;5.108;2024-01-07T12:00:28;8.50;;;8.00;;
84264;SDS011;74412;45.626;5.108;2024-01-07T12:02:58;8.00;;;8.00;;
84264;SDS011;74412;45.626;5.108;2024-01-07T12:05:27;11.00;;;7.75;;
84264;SDS011;74412;45.626;5.108;2024-01-07T12:07:54;13.00;;;12.25;;
84264;SDS011;74412;45.626;5.108;2024-01-07T12:10:22;8.00;;;8.00;;
84264;SDS011;74412;45.626;5.108;2024-01-07T12:12:49;9.50;;;8.75;;
84264;SDS011;74412;45.626;5.108;2024-01-07T12:15:16;9.75;;;9.75;;
84264;SDS011;74412;45.626;5.108;2024-01-07T12:17:47;9.00;;;9.00;;
84264;SDS011;74412;45.626;5.108;2024-01-07T12:20:21;9.75;;;8.00;;
84264;SDS011;74412;45.626;5.108;2024-01-07T12:22:47;11.00;;;9.50;;
84264;SDS011;74412;45.626;5.108;2024-01-07T12:25:20;8.25;;;8.00;;
84264;SDS011;74412;45.626;5.108;2024-01-07T12:27:47;14.50;;;13.00;;
84264;SDS011;74412;45.626;5.108;2024-01-07T12:30:17;12.50;;;10.25;;
84264;SDS011;74412;45.626;5.108;2024-01-07T12:32:46;14.00;;;12.75;;
84264;SDS011;74412;45.626;5.108;2024-01-07T12:35:13;12.75;;;11.50;;
84264;SDS011;74412;45.626;5.108;2024-01-07T12:37:39;9.50;;;9.50;;
84264;SDS011;74412;45.626;5.108;2024-01-07T12:40:06;5.75;;;4.00;;
84264;SDS011;74412;45.626;5.108;2024-01-07T12:42:36;7.00;;;7.00;;
84264;SDS011;74412;45.626;5.108;2024-01-07T12:45:05;9.00;;;9.00;;
84264;SDS011;74412;45.626;5.108;2024-01-07T12:47:32;13.25;;;8.75;;
84264;SDS011;74412;45.626;5.108;2024-01-07T12:50:00;12.75;;;9.75;;
84264;SDS011;74412;45.626;5.108;2024-01-07T12:52:27;12.25;;;12.00;;
84264;SDS011;74412;45.626;5.108;2024-01-07T12:54:53;9.50;;;7.75;;
84264;SDS011;74412;45.626;5.108;2024-01-07T12:57:21;12.75;;;12.25;;
84264;SDS011;74412;45.626;5.108;2024-01-07T12:59:47;14.75;;;10.00;;
84264;SDS011;74412;45.626;5.108;2024-01-07T13:02:14;12.50;;;9.75;;
84264;SDS011;74412;45.626;5.108;2024-01-07T13:04:41;10.50;;;9.00;;
84264;SDS011;74412;45.626;5.108;2024-01-07T13:07:09;12.25;;;9.00;;
84264;SDS011;74412;45.626;5.108;2024-01-07T13:09:35;12.00;;;8.75;;
84264;SDS011;74412;45.626;5.108;2024-01-07T13:12:02;8.25;;;7.75;;
84264;SDS011;74412;45.626;5.108;2024-01-07T13:14:29;7.75;;;6.50;;
84264;SDS011;74412;45.626;5.108;2024-01-07T13:16:56;7.25;;;7.25;;
84264;SDS011;74412;45.626;5.108;2024-01-07T13:19:23;9.50;;;7.50;;
84264;SDS011;74412;45.626;5.108;2024-01-07T13:21:51;10.75;;;9.75;;
84264;SDS011;74412;45.626;5.108;2024-01-07T13:24:23;6.50;;;5.25;;
84264;SDS011;74412;45.626;5.108;2024-01-07T13:26:49;7.50;;;5.75;;
84264;SDS011;74412;45.626;5.108;2024-01-07T13:29:16;13.25;;;12.00;;
84264;SDS011;74412;45.626;5.108;2024-01-07T13:31:42;8.00;;;6.00;;
84264;SDS011;74412;45.626;5.108;2024-01-07T13:34:09;9.25;;;7.75;;
84264;SDS011;74412;45.626;5.108;2024-01-07T13:36:36;11.25;;;9.75;;
84264;SDS011;74412;45.626;5.108;2024-01-07T13:39:02;6.00;;;6.00;;
84264;SDS011;74412;45.626;5.108;2024-01-07T13:41:33;11.75;;;9.00;;
84264;SDS011;74412;45.626;5.108;2024-01-07T13:44:01;9.25;;;9.25;;
84264;SDS011;74412;45.626;5.108;2024-01-07T13:46:29;12.50;;;11.25;;
84264;SDS011;74412;45.626;5.108;2024-01-07T13:48:55;12.50;;;11.00;;
84264;SDS011;74412;45.626;5.108;2024-01-07T13:51:22;13.00;;;12.25;;
84264;SDS011;74412;45.626;5.108;2024-01-07T13:53:49;15.00;;;13.00;;
84264;SDS011;74412;45.626;5.108;2024-01-07T13:56:15;11.50;;;9.50;;
84264;SDS011;74412;45.626;5.108;2024-01-07T13:58:43;10.75;;;8.50;;
84264;SDS011;74412;45.626;5.108;2024-01-07T14:01:12;11.75;;;9.25;;
84264;SDS011;74412;45.626;5.108;2024-01-07T14:03:38;12.50;;;11.00;;
84264;SDS011;74412;45.626;5.108;2024-01-07T14:06:05;10.25;;;8.75;;
84264;SDS011;74412;45.626;5.108;2024-01-07T14:08:32;13.00;;;11.25;;
84264;SDS011;74412;45.626;5.108;2024-01-07T14:10:59;13.25;;;12.25;;
84264;SDS011;74412;45.626;5.108;2024-01-07T14:13:26;6.75;;;6.75;;
84264;SDS011;74412;45.626;5.108;2024-01-07T14:15:55;7.00;;;4.25;;
84264;SDS011;74412;45.626;5.108;2024-01-07T14:18:22;12.00;;;9.00;;
84264;SDS011;74412;45.626;5.108;2024-01-07T14:20:49;14.75;;;14.00;;
84264;SDS011;74412;45.626;5.108;2024-01-07T14:23:16;15.25;;;10.50;;
84264;SDS011;74412;45.626;5.108;2024-01-07T14:25:43;12.50;;;10.25;;
84264;SDS011;74412;45.626;5.108;2024-01-07T14:28:09;14.50;;;13.75;;
84264;SDS011;74412;45.626;5.108;2024-01-07T14:30:36;15.25;;;13.00;;
84264;SDS011;74412;45.626;5.108;2024-01-07T14:33:04;14.75;;;13.00;;
84264;SDS011;74412;45.626;5.108;2024-01-07T14:35:32;13.75;;;12.25;;
84264;SDS011;74412;45.626;5.108;2024-01-07T14:37:59;19.75;;;13.50;;
84264;SDS011;74412;45.626;5.108;2024-01-07T14:40:25;12.00;;;12.00;;
84264;SDS011;74412;45.626;5.108;2024-01-07T14:42:52;11.50;;;10.75;;
84264;SDS011;74412;45.626;5.108;2024-01-07T14:45:22;14.25;;;14.25;;
84264;SDS011;74412;45.626;5.108;2024-01-07T14:47:50;9.75;;;9.25;;
84264;SDS011;74412;45.626;5.108;2024-01-07T14:50:18;11.50;;;8.50;;